createdAt,value
2023-05-02T00:02:17.449Z,2.95
2023-05-02T00:04:44.459Z,3.15
2023-05-02T00:07:11.898Z,2.70
2023-05-02T00:09:38.828Z,3.05
2023-05-02T00:12:05.854Z,3.30
2023-05-02T00:14:32.923Z,3.08
2023-05-02T00:16:59.870Z,2.78
2023-05-02T00:19:26.745Z,3.50
2023-05-02T00:21:53.584Z,3.17
2023-05-02T00:24:20.386Z,2.80
2023-05-02T00:26:47.420Z,2.80
2023-05-02T00:29:14.209Z,2.63
2023-05-02T00:31:41.946Z,6.30
2023-05-02T00:34:08.757Z,23.80
2023-05-02T00:36:35.598Z,3.63
2023-05-02T00:39:02.419Z,4.00
2023-05-02T00:41:29.274Z,3.28
2023-05-02T00:43:56.077Z,2.85
2023-05-02T00:46:23.143Z,22.08
2023-05-02T00:48:50.407Z,8.27
2023-05-02T00:51:18.216Z,22.42
2023-05-02T00:53:45.692Z,40.63
2023-05-02T00:56:12.546Z,10.40
2023-05-02T00:58:41.257Z,6.97
2023-05-02T01:01:48.319Z,2.63
2023-05-02T01:04:35.839Z,4.82
2023-05-02T01:07:12.560Z,4.78
2023-05-02T01:09:57.941Z,24.20
2023-05-02T01:12:31.908Z,51.58
2023-05-02T01:15:02.334Z,41.10
2023-05-02T01:17:32.956Z,13.07
2023-05-02T01:20:12.248Z,9.30
2023-05-02T01:22:43.713Z,15.15
2023-05-02T01:25:33.541Z,7.82
2023-05-02T01:30:47.498Z,4.53
2023-05-02T01:33:17.169Z,10.40
2023-05-02T01:35:46.426Z,4.55
2023-05-02T01:38:16.736Z,2.92
2023-05-02T01:40:46.251Z,11.20
2023-05-02T01:43:15.679Z,3.58
2023-05-02T01:45:45.652Z,5.93
2023-05-02T01:50:44.437Z,4.10
2023-05-02T01:53:13.859Z,2.50
2023-05-02T01:55:43.933Z,2.60
2023-05-02T01:58:15.185Z,1.77
2023-05-02T02:00:45.256Z,2.22
2023-05-02T02:03:14.146Z,2.05
2023-05-02T02:05:42.501Z,1.67
2023-05-02T02:08:09.671Z,2.00
2023-05-02T02:10:45.822Z,2.13
2023-05-02T02:13:44.896Z,2.45
2023-05-02T02:16:14.670Z,2.77
2023-05-02T02:18:46.014Z,1.95
2023-05-02T02:21:18.926Z,2.25
2023-05-02T02:23:48.560Z,2.22
2023-05-02T02:26:18.092Z,1.70
2023-05-02T02:28:45.145Z,2.15
2023-05-02T02:31:12.128Z,2.65
2023-05-02T02:33:39.017Z,2.17
2023-05-02T02:36:18.214Z,3.13
2023-05-02T02:38:56.562Z,2.08
2023-05-02T02:41:43.617Z,5.60
2023-05-02T02:44:30.967Z,2.50
2023-05-02T02:47:09.576Z,2.75
2023-05-02T02:49:51.453Z,3.35
2023-05-02T02:52:33.855Z,2.28
2023-05-02T02:55:13.124Z,3.40
2023-05-02T02:57:57.979Z,2.80
2023-05-02T03:00:27.371Z,2.65
2023-05-02T03:02:56.536Z,2.78
2023-05-02T03:05:23.966Z,2.83
2023-05-02T03:07:51.208Z,3.30
2023-05-02T03:10:18.615Z,5.10
2023-05-02T03:12:45.490Z,6.22
2023-05-02T03:15:51.327Z,2.60
2023-05-02T03:18:23.099Z,4.05
2023-05-02T03:20:49.917Z,2.83
2023-05-02T03:23:16.798Z,3.30
2023-05-02T03:25:43.588Z,3.40
2023-05-02T03:28:14.025Z,3.30
2023-05-02T03:30:43.901Z,2.72
2023-05-02T03:33:11.081Z,2.40
2023-05-02T03:35:42.621Z,2.53
2023-05-02T03:38:11.073Z,3.25
2023-05-02T03:40:38.058Z,3.33
2023-05-02T03:43:09.315Z,2.63
2023-05-02T03:45:36.239Z,3.20
2023-05-02T03:48:03.185Z,2.83
2023-05-02T03:50:30.928Z,3.70
2023-05-02T03:52:57.932Z,3.60
2023-05-02T03:55:40.753Z,3.58
2023-05-02T03:58:10.655Z,3.90
2023-05-02T04:00:38.736Z,3.22
2023-05-02T04:03:08.606Z,4.00
2023-05-02T04:05:39.285Z,4.45
2023-05-02T04:08:06.414Z,6.13
2023-05-02T04:10:33.326Z,3.97
2023-05-02T04:13:04.020Z,5.35
2023-05-02T04:15:32.918Z,4.45
2023-05-02T04:18:00.749Z,4.60
2023-05-02T04:20:29.218Z,5.63
2023-05-02T04:22:56.081Z,4.82
2023-05-02T04:25:23.071Z,5.40
2023-05-02T04:27:52.286Z,5.68
2023-05-02T04:33:04.330Z,4.53
2023-05-02T04:35:35.078Z,4.40
2023-05-02T04:38:03.290Z,3.67
2023-05-02T04:40:30.866Z,5.50
2023-05-02T04:43:03.442Z,3.55
2023-05-02T04:45:48.293Z,2.85
2023-05-02T04:48:22.817Z,3.65
2023-05-02T04:50:50.035Z,4.10
2023-05-02T04:53:16.910Z,4.63
2023-05-02T04:55:43.841Z,6.00
2023-05-02T04:58:10.991Z,8.23
2023-05-02T05:00:38.867Z,6.07
2023-05-02T05:03:06.427Z,5.88
2023-05-02T05:05:33.914Z,8.18
2023-05-02T05:08:01.676Z,6.05
2023-05-02T05:10:32.201Z,5.70
2023-05-02T05:12:59.031Z,8.07
2023-05-02T05:15:27.240Z,6.45
2023-05-02T05:17:58.606Z,6.10
2023-05-02T05:20:25.498Z,6.38
2023-05-02T05:25:23.064Z,5.05
2023-05-02T05:27:52.471Z,6.93
2023-05-02T05:30:19.753Z,6.18
2023-05-02T05:32:47.512Z,6.28
2023-05-02T05:35:14.442Z,7.47
2023-05-02T05:37:41.479Z,6.53
2023-05-02T05:40:11.670Z,6.65
2023-05-02T05:42:40.986Z,7.15
2023-05-02T05:45:16.344Z,6.88
2023-05-02T05:47:43.712Z,7.78
2023-05-02T05:50:11.020Z,8.82
2023-05-02T05:52:39.492Z,8.90
2023-05-02T05:55:07.133Z,8.90
2023-05-02T05:57:33.993Z,8.48
2023-05-02T06:00:01.582Z,8.60
2023-05-02T06:02:30.168Z,8.93
2023-05-02T06:04:57.638Z,8.73
2023-05-02T06:07:25.834Z,8.77
2023-05-02T06:09:52.630Z,10.45
2023-05-02T06:12:21.312Z,9.10
2023-05-02T06:14:48.084Z,11.82
2023-05-02T06:17:15.428Z,10.00
2023-05-02T06:19:42.271Z,10.77
2023-05-02T06:22:12.264Z,11.02
2023-05-02T06:27:05.769Z,9.20
2023-05-02T06:29:32.613Z,13.10
2023-05-02T06:31:59.448Z,10.63
2023-05-02T06:34:26.358Z,11.43
2023-05-02T06:36:56.701Z,11.13
2023-05-02T06:39:23.584Z,12.15
2023-05-02T06:41:50.499Z,10.60
2023-05-02T06:44:18.327Z,13.65
2023-05-02T06:46:45.177Z,13.20
2023-05-02T06:49:12.069Z,12.05
2023-05-02T06:51:39.594Z,13.15
2023-05-02T06:54:06.585Z,14.48
2023-05-02T06:56:33.403Z,13.23
2023-05-02T06:59:00.309Z,12.13
2023-05-02T07:01:27.698Z,14.15
2023-05-02T07:03:54.630Z,13.45
2023-05-02T07:06:21.945Z,17.85
2023-05-02T07:08:48.854Z,14.32
2023-05-02T07:11:16.036Z,16.25
2023-05-02T07:13:43.237Z,22.75
2023-05-02T07:16:10.095Z,14.95
2023-05-02T07:18:37.349Z,14.82
2023-05-02T07:21:04.298Z,15.13
2023-05-02T07:23:31.219Z,19.80
2023-05-02T07:25:58.004Z,20.08
2023-05-02T07:28:24.845Z,25.02
2023-05-02T07:30:52.195Z,26.08
2023-05-02T07:33:19.210Z,22.30
2023-05-02T07:35:46.115Z,25.27
2023-05-02T07:38:12.981Z,25.67
2023-05-02T07:40:39.809Z,28.35
2023-05-02T07:43:07.538Z,26.60
2023-05-02T07:45:36.228Z,27.45
2023-05-02T07:48:03.897Z,27.83
2023-05-02T07:50:31.009Z,27.98
2023-05-02T07:52:57.865Z,27.95
2023-05-02T07:55:26.532Z,28.73
2023-05-02T07:57:54.030Z,23.85
2023-05-02T08:00:21.164Z,22.33
2023-05-02T08:02:48.122Z,25.65
2023-05-02T08:05:15.099Z,25.10
2023-05-02T08:07:42.543Z,25.05
2023-05-02T08:10:10.417Z,25.77
2023-05-02T08:12:41.440Z,29.98
2023-05-02T08:15:11.897Z,28.33
2023-05-02T08:17:38.791Z,28.55
2023-05-02T08:20:06.484Z,28.45
2023-05-02T08:22:33.245Z,29.10
2023-05-02T08:25:00.147Z,29.23
2023-05-02T08:27:28.228Z,30.63
2023-05-02T08:29:55.021Z,31.58
2023-05-02T08:32:22.443Z,32.13
2023-05-02T08:34:50.823Z,33.10
2023-05-02T08:37:18.466Z,36.67
2023-05-02T08:39:45.818Z,35.08
2023-05-02T08:42:12.840Z,33.17
2023-05-02T08:44:39.783Z,31.38
2023-05-02T08:47:10.706Z,30.52
2023-05-02T08:49:38.697Z,30.42
2023-05-02T08:52:06.761Z,28.15
2023-05-02T08:54:34.105Z,28.75
2023-05-02T08:57:03.373Z,28.30
2023-05-02T08:59:30.558Z,31.25
2023-05-02T09:02:23.226Z,28.25
2023-05-02T09:04:55.878Z,27.30
2023-05-02T09:07:23.130Z,27.55
2023-05-02T09:09:50.207Z,28.52
2023-05-02T09:12:17.044Z,26.55
2023-05-02T09:14:44.951Z,25.40
2023-05-02T09:17:11.917Z,28.42
2023-05-02T09:19:38.712Z,28.13
2023-05-02T09:22:05.525Z,23.80
2023-05-02T09:24:33.493Z,25.20
2023-05-02T09:27:04.120Z,25.58
2023-05-02T09:29:37.651Z,27.00
2023-05-02T09:32:06.106Z,27.23
2023-05-02T09:34:34.433Z,26.17
2023-05-02T09:37:02.745Z,24.20
2023-05-02T09:39:29.663Z,23.38
2023-05-02T09:41:57.908Z,24.20
2023-05-02T09:44:27.214Z,22.45
2023-05-02T09:46:57.271Z,22.80
2023-05-02T09:52:17.368Z,18.73
2023-05-02T09:54:46.333Z,21.42
2023-05-02T09:57:13.282Z,24.38
2023-05-02T09:59:41.014Z,17.02
2023-05-02T10:02:11.007Z,19.15
2023-05-02T10:04:39.574Z,22.70
2023-05-02T10:07:10.292Z,22.05
2023-05-02T10:09:43.162Z,24.67
2023-05-02T10:12:09.937Z,18.77
2023-05-02T10:14:43.719Z,20.48
2023-05-02T10:17:30.947Z,20.55
2023-05-02T10:20:03.665Z,20.30
2023-05-02T10:22:31.526Z,18.52
2023-05-02T10:24:59.822Z,17.88
2023-05-02T10:27:27.148Z,19.08
2023-05-02T10:29:54.858Z,20.08
2023-05-02T10:32:23.345Z,20.85
2023-05-02T10:34:51.779Z,18.83
2023-05-02T10:37:19.414Z,19.40
2023-05-02T10:39:46.235Z,21.40
2023-05-02T10:42:14.402Z,22.08
2023-05-02T10:44:41.848Z,20.55
2023-05-02T10:47:27.641Z,21.77
2023-05-02T10:50:00.963Z,20.67
2023-05-02T10:52:37.865Z,19.90
2023-05-02T10:55:22.205Z,21.02
2023-05-02T10:58:21.332Z,16.50
2023-05-02T11:00:48.335Z,22.13
2023-05-02T11:03:15.243Z,20.73
2023-05-02T11:06:06.934Z,18.60
2023-05-02T11:08:33.898Z,19.23
2023-05-02T11:11:43.016Z,19.42
2023-05-02T11:14:11.760Z,24.67
2023-05-02T11:16:57.476Z,19.73
2023-05-02T11:19:25.577Z,20.63
2023-05-02T11:21:53.836Z,26.05
2023-05-02T11:24:44.429Z,20.15
2023-05-02T11:27:29.845Z,18.23
2023-05-02T11:30:09.991Z,23.27
2023-05-02T11:32:46.754Z,22.50
2023-05-02T11:35:26.844Z,21.77
2023-05-02T11:37:58.643Z,25.83
2023-05-02T11:40:27.038Z,25.50
2023-05-02T11:42:54.559Z,26.70
2023-05-02T11:45:21.811Z,27.85
2023-05-02T11:47:51.410Z,28.13
2023-05-02T11:50:18.574Z,29.27
2023-05-02T11:52:46.100Z,29.50
2023-05-02T11:55:15.767Z,29.52
2023-05-02T11:57:43.087Z,26.95
2023-05-02T12:00:13.359Z,26.10
2023-05-02T12:02:50.262Z,27.40
2023-05-02T12:05:32.409Z,28.35
2023-05-02T12:08:01.100Z,27.73
2023-05-02T12:10:38.244Z,27.08
2023-05-02T12:13:06.592Z,31.63
2023-05-02T12:15:33.960Z,29.38
2023-05-02T12:18:01.594Z,29.05
2023-05-02T12:20:28.504Z,30.25
2023-05-02T12:22:55.539Z,29.98
2023-05-02T12:25:22.497Z,32.33
2023-05-02T12:28:03.079Z,28.23
2023-05-02T12:30:31.523Z,26.35
2023-05-02T12:33:02.595Z,30.23
2023-05-02T12:35:31.118Z,24.60
2023-05-02T12:38:11.790Z,28.90
2023-05-02T12:40:39.918Z,26.45
2023-05-02T12:43:10.493Z,26.63
2023-05-02T12:45:37.581Z,31.10
2023-05-02T12:48:26.278Z,23.83
2023-05-02T12:50:55.238Z,22.67
2023-05-02T12:53:43.087Z,23.88
2023-05-02T12:56:11.470Z,20.95
2023-05-02T12:58:43.351Z,19.25
2023-05-02T13:01:10.681Z,17.88
2023-05-02T13:03:37.995Z,20.23
2023-05-02T13:06:05.304Z,22.42
2023-05-02T13:08:34.264Z,20.23
2023-05-02T13:11:02.834Z,22.60
2023-05-02T13:13:30.591Z,25.27
2023-05-02T13:15:57.401Z,20.45
2023-05-02T13:18:25.054Z,20.33
2023-05-02T13:20:51.915Z,16.85
2023-05-02T13:23:18.719Z,21.65
2023-05-02T13:25:45.592Z,24.88
2023-05-02T13:28:12.392Z,20.77
2023-05-02T13:30:39.237Z,19.67
2023-05-02T13:33:06.145Z,18.45
2023-05-02T13:35:35.168Z,19.05
2023-05-02T13:38:02.865Z,18.25
2023-05-02T13:40:29.664Z,17.05
2023-05-02T13:42:56.425Z,16.13
2023-05-02T13:45:23.363Z,12.38
2023-05-02T13:47:50.207Z,13.65
2023-05-02T13:50:17.179Z,16.17
2023-05-02T13:52:44.144Z,18.65
2023-05-02T13:55:10.915Z,15.93
2023-05-02T13:57:37.730Z,17.02
2023-05-02T14:00:05.547Z,15.23
2023-05-02T14:02:32.555Z,13.23
2023-05-02T14:04:59.404Z,13.38
2023-05-02T14:07:26.340Z,16.70
2023-05-02T14:09:53.141Z,16.10
2023-05-02T14:12:20.088Z,12.77
2023-05-02T14:14:46.903Z,15.38
2023-05-02T14:17:13.944Z,12.63
2023-05-02T14:19:41.663Z,11.55
2023-05-02T14:22:08.519Z,12.52
2023-05-02T14:24:35.386Z,13.30
2023-05-02T14:27:02.436Z,13.98
2023-05-02T14:29:29.303Z,12.02
2023-05-02T14:31:56.187Z,11.60
2023-05-02T14:34:26.734Z,16.00
2023-05-02T14:36:53.609Z,11.85
2023-05-02T14:39:21.053Z,12.30
2023-05-02T14:41:48.134Z,17.60
2023-05-02T14:44:15.058Z,17.92
2023-05-02T14:46:42.106Z,14.38
2023-05-02T14:49:09.225Z,16.38
2023-05-02T14:51:39.440Z,13.85
2023-05-02T14:54:07.091Z,14.65
2023-05-02T14:56:34.070Z,13.23
2023-05-02T14:59:00.903Z,13.00
2023-05-02T15:01:27.873Z,14.15
2023-05-02T15:04:04.918Z,9.88
2023-05-02T15:06:34.929Z,12.17
2023-05-02T15:09:02.166Z,8.93
2023-05-02T15:11:28.978Z,9.75
2023-05-02T15:13:58.472Z,9.52
2023-05-02T15:16:26.854Z,8.57
2023-05-02T15:18:54.037Z,8.98
2023-05-02T15:21:21.366Z,8.82
2023-05-02T15:23:48.212Z,6.97
2023-05-02T15:26:15.169Z,5.78
2023-05-02T15:28:42.121Z,7.45
2023-05-02T15:31:09.001Z,5.85
2023-05-02T15:33:35.985Z,6.10
2023-05-02T15:36:02.880Z,6.85
2023-05-02T15:38:34.678Z,7.70
2023-05-02T15:41:01.482Z,6.50
2023-05-02T15:43:28.382Z,7.32
2023-05-02T15:45:58.456Z,5.47
2023-05-02T15:48:30.800Z,5.47
2023-05-02T15:50:57.772Z,4.78
2023-05-02T15:53:24.663Z,7.10
2023-05-02T15:55:52.838Z,4.68
2023-05-02T15:58:20.229Z,4.60
2023-05-02T16:00:47.544Z,5.28
2023-05-02T16:03:15.770Z,6.20
2023-05-02T16:05:42.732Z,4.75
2023-05-02T16:08:09.889Z,4.82
2023-05-02T16:10:39.081Z,3.13
2023-05-02T16:13:05.954Z,5.20
2023-05-02T16:15:32.817Z,6.90
2023-05-02T16:17:59.718Z,4.28
2023-05-02T16:20:27.772Z,6.32
2023-05-02T16:22:55.157Z,4.95
2023-05-02T16:25:22.155Z,5.30
2023-05-02T16:27:49.149Z,3.85
2023-05-02T16:30:16.339Z,4.50
2023-05-02T16:32:43.231Z,5.68
2023-05-02T16:35:12.790Z,5.75
2023-05-02T16:37:41.341Z,4.97
2023-05-02T16:40:09.625Z,3.70
2023-05-02T16:42:37.198Z,4.00
2023-05-02T16:45:04.494Z,5.88
2023-05-02T16:47:31.365Z,3.63
2023-05-02T16:49:59.704Z,3.83
2023-05-02T16:52:27.249Z,5.45
2023-05-02T16:54:54.725Z,5.43
2023-05-02T16:57:22.096Z,6.68
2023-05-02T16:59:51.075Z,4.32
2023-05-02T17:02:20.744Z,3.70
2023-05-02T17:07:15.586Z,6.22
2023-05-02T17:09:44.338Z,5.80
2023-05-02T17:12:12.735Z,4.43
2023-05-02T17:14:42.364Z,4.65
2023-05-02T17:17:10.128Z,6.07
2023-05-02T17:19:37.242Z,4.55
2023-05-02T17:22:04.997Z,4.22
2023-05-02T17:24:32.554Z,4.05
2023-05-02T17:26:59.779Z,4.32
2023-05-02T17:29:26.748Z,7.15
2023-05-02T17:31:53.635Z,7.93
2023-05-02T17:34:25.523Z,6.70
2023-05-02T17:36:52.373Z,6.68
2023-05-02T17:39:19.257Z,8.70
2023-05-02T17:41:46.212Z,9.00
2023-05-02T17:44:13.030Z,6.28
2023-05-02T17:46:39.949Z,5.30
2023-05-02T17:49:06.812Z,8.15
2023-05-02T17:51:33.683Z,9.18
2023-05-02T17:54:00.855Z,6.50
2023-05-02T17:56:28.396Z,6.47
2023-05-02T17:58:55.328Z,5.90
2023-05-02T18:01:22.196Z,6.20
2023-05-02T18:03:49.949Z,5.63
2023-05-02T18:06:18.099Z,5.55
2023-05-02T18:08:45.852Z,8.73
2023-05-02T18:11:20.155Z,5.68
2023-05-02T18:13:48.392Z,6.18
2023-05-02T18:16:15.443Z,8.13
2023-05-02T18:18:43.664Z,6.60
2023-05-02T18:21:11.459Z,5.93
2023-05-02T18:23:40.034Z,7.47
2023-05-02T18:26:13.248Z,6.85
2023-05-02T18:28:42.714Z,6.20
2023-05-02T18:31:17.532Z,6.30
2023-05-02T18:33:44.502Z,6.65
2023-05-02T18:36:11.381Z,6.15
2023-05-02T18:38:39.009Z,5.85
2023-05-02T18:41:05.955Z,5.13
2023-05-02T18:43:34.847Z,7.85
2023-05-02T18:46:01.826Z,5.65
2023-05-02T18:48:28.679Z,4.72
2023-05-02T18:50:58.672Z,7.10
2023-05-02T18:55:54.157Z,5.95
2023-05-02T18:58:22.428Z,6.60
2023-05-02T19:00:49.282Z,5.80
2023-05-02T19:03:16.330Z,7.75
2023-05-02T19:05:43.805Z,5.05
2023-05-02T19:08:11.145Z,10.18
2023-05-02T19:10:37.969Z,27.27
2023-05-02T19:13:04.835Z,58.70
2023-05-02T19:15:34.059Z,23.20
2023-05-02T19:18:00.994Z,11.57
2023-05-02T19:20:29.876Z,17.23
2023-05-02T19:23:14.612Z,8.25
2023-05-02T19:25:44.881Z,6.65
2023-05-02T19:28:16.622Z,6.72
2023-05-02T19:30:45.252Z,4.97
2023-05-02T19:33:12.489Z,4.35
2023-05-02T19:35:39.440Z,5.07
2023-05-02T19:38:06.348Z,5.57
2023-05-02T19:40:33.275Z,6.70
2023-05-02T19:43:00.063Z,6.05
2023-05-02T19:45:27.653Z,5.13
2023-05-02T19:47:56.851Z,6.15
2023-05-02T19:50:26.228Z,4.40
2023-05-02T19:52:53.056Z,6.10
2023-05-02T19:55:20.726Z,5.35
2023-05-02T19:57:48.628Z,9.60
2023-05-02T20:00:15.898Z,8.75
2023-05-02T20:02:44.460Z,6.63
2023-05-02T20:05:11.629Z,6.90
2023-05-02T20:07:38.566Z,5.20
2023-05-02T20:10:06.242Z,8.00
2023-05-02T20:12:33.096Z,7.10
2023-05-02T20:14:59.874Z,10.82
2023-05-02T20:17:26.882Z,36.78
2023-05-02T20:19:53.950Z,34.20
2023-05-02T20:22:20.794Z,22.45
2023-05-02T20:24:47.752Z,21.98
2023-05-02T20:27:14.589Z,25.40
2023-05-02T20:29:41.556Z,12.27
2023-05-02T20:32:09.040Z,11.25
2023-05-02T20:34:36.120Z,7.70
2023-05-02T20:37:06.862Z,7.45
2023-05-02T20:39:35.104Z,9.75
2023-05-02T20:42:03.610Z,6.75
2023-05-02T20:44:36.451Z,5.75
2023-05-02T20:47:06.835Z,5.38
2023-05-02T20:49:33.710Z,6.30
2023-05-02T20:52:06.546Z,8.38
2023-05-02T20:54:33.702Z,19.45
2023-05-02T20:57:00.497Z,7.07
2023-05-02T20:59:27.318Z,9.93
2023-05-02T21:01:54.193Z,7.93
2023-05-02T21:04:21.280Z,8.43
2023-05-02T21:06:48.172Z,7.53
2023-05-02T21:09:16.872Z,12.82
2023-05-02T21:11:43.763Z,13.93
2023-05-02T21:14:11.696Z,13.57
2023-05-02T21:16:38.482Z,9.55
2023-05-02T21:19:05.455Z,10.50
2023-05-02T21:21:32.283Z,9.68
2023-05-02T21:23:59.133Z,7.38
2023-05-02T21:26:26.162Z,6.53
2023-05-02T21:28:53.357Z,6.40
2023-05-02T21:31:20.290Z,7.47
2023-05-02T21:33:47.189Z,9.27
2023-05-02T21:36:14.945Z,8.80
2023-05-02T21:38:41.746Z,39.08
2023-05-02T21:41:08.939Z,15.75
2023-05-02T21:43:39.649Z,9.85
2023-05-02T21:46:06.680Z,9.63
2023-05-02T21:48:34.004Z,7.13
2023-05-02T21:51:01.011Z,50.78
2023-05-02T21:53:28.005Z,39.30
2023-05-02T21:55:55.221Z,19.67
2023-05-02T21:58:22.093Z,10.98
2023-05-02T22:00:48.958Z,7.85
2023-05-02T22:03:15.867Z,6.07
2023-05-02T22:05:42.795Z,8.10
2023-05-02T22:08:12.524Z,6.47
2023-05-02T22:10:42.411Z,9.48
2023-05-02T22:13:14.747Z,6.03
2023-05-02T22:15:46.579Z,6.53
2023-05-02T22:18:16.567Z,8.15
2023-05-02T22:23:12.375Z,8.50
2023-05-02T22:25:44.795Z,7.05
2023-05-02T22:28:12.274Z,10.30
2023-05-02T22:30:40.115Z,9.63
2023-05-02T22:33:07.463Z,7.50
2023-05-02T22:35:34.457Z,8.10
2023-05-02T22:38:04.885Z,8.25
2023-05-02T22:40:32.563Z,9.93
2023-05-02T22:43:00.662Z,8.77
2023-05-02T22:45:27.835Z,6.82
2023-05-02T22:47:55.155Z,8.65
2023-05-02T22:50:22.120Z,9.00
2023-05-02T22:52:49.141Z,6.97
2023-05-02T22:55:17.281Z,7.45
2023-05-02T22:57:44.211Z,7.13
2023-05-02T23:00:12.196Z,7.22
2023-05-02T23:02:39.616Z,5.85
2023-05-02T23:05:07.218Z,6.60
2023-05-02T23:07:34.154Z,7.15
2023-05-02T23:10:01.580Z,6.28
2023-05-02T23:12:28.728Z,8.20
2023-05-02T23:14:56.806Z,8.25
2023-05-02T23:17:23.770Z,8.93
2023-05-02T23:19:50.750Z,8.82
2023-05-02T23:22:17.606Z,9.13
2023-05-02T23:24:46.801Z,7.57
2023-05-02T23:29:41.789Z,8.15
2023-05-02T23:32:08.789Z,6.60
2023-05-02T23:34:38.885Z,7.53
2023-05-02T23:37:06.780Z,9.07
2023-05-02T23:39:33.713Z,9.82
2023-05-02T23:42:03.461Z,8.98
2023-05-02T23:44:31.178Z,8.85
2023-05-02T23:46:59.427Z,7.28
2023-05-02T23:49:27.158Z,6.53
2023-05-02T23:51:54.020Z,8.93
2023-05-02T23:54:20.861Z,7.40
2023-05-02T23:56:47.789Z,8.10
2023-05-02T23:59:15.127Z,7.88
